Time;durP1;ratioP1;P1;durP2;ratioP2;P2;SDS_P1;SDS_P2;PMS_P1;PMS_P2;Temp;Humidity;BMP_temperature;BMP_pressure;BME280_temperature;BME280_humidity;BME280_pressure;Samples;Min_cycle;Max_cycle;Signal;HPM_P1;HPM_P2
2023/07/20 00:02:15;;;;;;;13.25;6.13;;;;;;;21.35;100.00;97144.53;5063095;28;20056;-80
2023/07/20 00:04:40;;;;;;;15.25;5.60;;;;;;;21.33;100.00;97132.97;5057702;28;20108;-80
2023/07/20 00:07:06;;;;;;;10.65;6.00;;;;;;;21.27;100.00;97122.75;5051497;28;20383;-80
2023/07/20 00:09:31;;;;;;;14.90;5.28;;;;;;;21.26;100.00;97131.94;5053715;28;20024;-81
2023/07/20 00:11:57;;;;;;;13.80;5.32;;;;;;;21.26;100.00;97131.94;5069656;28;20028;-80
2023/07/20 00:14:22;;;;;;;14.43;5.63;;;;;;;21.29;100.00;97143.31;5060292;28;20039;-79
2023/07/20 00:16:55;;;;;;;9.63;5.50;;;;;;;21.25;100.00;97130.25;5066800;28;20036;-79
2023/07/20 00:19:21;;;;;;;16.85;5.53;;;;;;;21.27;100.00;97128.19;5069556;28;20036;-80
2023/07/20 00:21:47;;;;;;;9.77;5.00;;;;;;;21.27;100.00;97106.44;5053021;28;20028;-79
2023/07/20 00:24:12;;;;;;;10.90;5.72;;;;;;;21.24;100.00;97079.56;5069333;28;20029;-80
2023/07/20 00:26:38;;;;;;;13.43;6.07;;;;;;;21.12;100.00;97057.31;5070861;28;20020;-80
2023/07/20 00:29:03;;;;;;;16.35;6.03;;;;;;;21.06;100.00;97056.13;5050432;28;20040;-80
2023/07/20 00:31:29;;;;;;;8.45;5.72;;;;;;;20.99;100.00;97046.94;5049347;28;20045;-79
2023/07/20 00:33:54;;;;;;;9.90;5.70;;;;;;;21.01;100.00;97044.88;5051789;28;20395;-80
2023/07/20 00:36:20;;;;;;;15.25;5.95;;;;;;;21.00;100.00;97048.66;5070659;28;20514;-80
2023/07/20 00:38:45;;;;;;;15.52;5.60;;;;;;;20.98;100.00;97042.50;5052943;28;20094;-80
2023/07/20 00:41:11;;;;;;;10.15;5.25;;;;;;;21.10;100.00;97029.47;5062323;28;20020;-80
2023/07/20 00:43:36;;;;;;;12.32;5.25;;;;;;;21.06;100.00;97018.03;5050621;28;20444;-81
2023/07/20 00:46:02;;;;;;;10.93;4.90;;;;;;;20.93;100.00;96995.97;5049473;28;20115;-80
2023/07/20 00:48:29;;;;;;;17.40;5.28;;;;;;;20.83;100.00;97013.47;5049391;28;20096;-80
2023/07/20 00:50:55;;;;;;;16.35;5.20;;;;;;;20.87;100.00;97022.97;5032752;28;20036;-80
2023/07/20 00:53:21;;;;;;;11.40;5.22;;;;;;;20.84;100.00;97018.75;5032877;28;20400;-81
2023/07/20 00:55:46;;;;;;;17.75;5.22;;;;;;;20.91;100.00;97024.34;5049563;28;20473;-81
2023/07/20 00:58:12;;;;;;;10.98;5.20;;;;;;;20.87;100.00;97031.13;5039469;28;20073;-80
2023/07/20 01:00:37;;;;;;;11.52;5.65;;;;;;;20.92;100.00;97043.19;5054760;28;20032;-81
2023/07/20 01:03:03;;;;;;;14.70;5.82;;;;;;;21.00;100.00;97048.66;5050152;28;20513;-81
2023/07/20 01:05:48;;;;;;;12.65;5.95;;;;;;;20.99;100.00;97055.09;5032598;28;20108;-80
2023/07/20 01:08:33;;;;;;;15.38;5.80;;;;;;;21.03;100.00;97056.47;5032577;28;20488;-80
2023/07/20 01:11:10;;;;;;;20.35;6.25;;;;;;;20.90;100.00;97060.72;5032524;28;20483;-80
2023/07/20 01:13:37;;;;;;;15.85;5.63;;;;;;;20.96;100.00;97066.31;5032488;28;20202;-80
2023/07/20 01:16:02;;;;;;;11.35;5.53;;;;;;;20.89;100.00;97057.13;5032622;28;20468;-79
2023/07/20 01:18:28;;;;;;;17.08;6.07;;;;;;;21.00;100.00;97067.69;5050579;28;20118;-80
2023/07/20 01:20:59;;;;;;;12.40;5.85;;;;;;;20.93;100.00;97069.38;5048706;28;20036;-81
2023/07/20 01:24:02;;;;;;;15.85;5.55;;;;;;;20.96;100.00;97076.34;5052436;28;20021;-81
2023/07/20 01:26:46;;;;;;;;;;;;;;;20.98;100.00;97080.59;5070734;28;20035;-80
2023/07/20 01:29:42;;;;;;;10.32;5.72;;;;;;;21.03;100.00;97080.09;5070134;28;19974;-81
2023/07/20 01:32:09;;;;;;;10.85;5.80;;;;;;;20.98;100.00;97088.75;5053231;28;20048;-79
2023/07/20 01:34:36;;;;;;;14.13;5.97;;;;;;;20.95;100.00;97075.47;5057625;28;20423;-80
2023/07/20 01:37:02;;;;;;;21.80;6.43;;;;;;;20.99;100.00;97081.44;5069548;28;20031;-79
2023/07/20 01:39:28;;;;;;;12.77;5.80;;;;;;;21.04;100.00;97085.34;5052565;28;20113;-79
2023/07/20 01:41:53;;;;;;;14.77;5.97;;;;;;;21.01;100.00;97076.69;5043206;28;20463;-80
2023/07/20 01:44:19;;;;;;;14.57;6.20;;;;;;;21.07;100.00;97089.59;5055799;28;20032;-80
2023/07/20 01:46:44;;;;;;;14.18;6.45;;;;;;;21.00;100.00;97084.00;5062910;28;20045;-80
2023/07/20 01:49:10;;;;;;;11.90;6.25;;;;;;;20.95;100.00;97085.50;5062859;28;20110;-79
2023/07/20 01:51:36;;;;;;;10.50;5.47;;;;;;;20.88;100.00;97079.94;5072526;28;20533;-80
2023/07/20 01:54:01;;;;;;;12.38;5.97;;;;;;;20.86;100.00;97081.09;5073834;28;20466;-80
2023/07/20 01:56:26;;;;;;;12.07;6.22;;;;;;;20.84;100.00;97075.84;5072451;28;20395;-80
2023/07/20 01:58:52;;;;;;;8.77;5.35;;;;;;;20.75;100.00;97068.72;5055764;28;20032;-81
2023/07/20 02:01:18;;;;;;;12.82;5.00;;;;;;;20.76;100.00;97062.25;5072208;28;20097;-80
2023/07/20 02:03:43;;;;;;;9.07;4.28;;;;;;;20.74;100.00;97053.41;5071327;28;20482;-81
2023/07/20 02:06:09;;;;;;;17.02;4.18;;;;;;;20.58;100.00;97039.81;5053460;28;20021;-80
2023/07/20 02:08:34;;;;;;;9.95;3.90;;;;;;;20.56;100.00;97030.97;5053508;28;20051;-81
2023/07/20 02:11:00;;;;;;;8.88;3.63;;;;;;;20.60;100.00;97018.75;5055080;28;20040;-81
2023/07/20 02:13:25;;;;;;;10.30;4.22;;;;;;;20.61;100.00;97017.72;5069725;28;20117;-80
2023/07/20 02:15:51;;;;;;;19.45;3.95;;;;;;;20.62;100.00;97021.28;5041021;28;20056;-81
2023/07/20 02:18:16;;;;;;;11.25;4.32;;;;;;;20.60;100.00;97021.47;5055417;28;20031;-80
2023/07/20 02:20:42;;;;;;;13.15;4.18;;;;;;;20.55;100.00;97029.28;5073295;28;20033;-81
2023/07/20 02:23:08;;;;;;;9.52;3.70;;;;;;;20.45;100.00;97018.59;5071961;28;20111;-81
2023/07/20 02:25:33;;;;;;;11.15;3.90;;;;;;;20.46;100.00;97017.56;5071644;28;20046;-81
2023/07/20 02:27:59;;;;;;;12.73;4.43;;;;;;;20.36;100.00;97019.59;5069664;28;20107;-81
2023/07/20 02:30:24;;;;;;;15.45;4.28;;;;;;;20.35;100.00;97028.78;5052640;28;20031;-80
2023/07/20 02:32:50;;;;;;;15.52;4.13;;;;;;;20.34;100.00;97028.91;5053073;28;20029;-80
2023/07/20 02:35:16;;;;;;;14.52;5.00;;;;;;;20.36;100.00;97041.34;5052850;28;20032;-80
2023/07/20 02:37:42;;;;;;;17.10;5.95;;;;;;;20.28;100.00;97049.47;5051720;28;20029;-80
2023/07/20 02:40:08;;;;;;;45.70;22.70;;;;;;;20.32;100.00;97049.97;5072591;28;20036;-80
2023/07/20 02:42:34;;;;;;;17.35;6.15;;;;;;;20.31;100.00;97049.13;5071371;28;20119;-80
2023/07/20 02:45:01;;;;;;;14.32;5.82;;;;;;;20.31;100.00;97051.84;5072709;28;20120;-81
2023/07/20 02:47:27;;;;;;;13.95;6.45;;;;;;;20.30;100.00;97062.91;5070682;28;20111;-81
2023/07/20 02:49:52;;;;;;;17.58;8.57;;;;;;;20.29;100.00;97063.91;5058320;28;20704;-81
2023/07/20 02:52:18;;;;;;;16.98;7.65;;;;;;;20.29;100.00;97061.19;5064954;28;20023;-80
2023/07/20 02:54:43;;;;;;;16.85;6.30;;;;;;;20.24;100.00;97049.94;5071481;28;20028;-81
2023/07/20 02:57:09;;;;;;;14.80;6.38;;;;;;;20.18;100.00;97065.03;5072484;28;20021;-81
2023/07/20 02:59:34;;;;;;;27.67;6.25;;;;;;;20.21;100.00;97061.97;5072339;28;20451;-81
2023/07/20 03:02:00;;;;;;;11.50;5.75;;;;;;;20.19;100.00;97060.44;5072478;28;20033;-81
2023/07/20 03:04:28;;;;;;;13.30;5.90;;;;;;;20.13;100.00;97077.41;5071029;28;20135;-80
2023/07/20 03:06:54;;;;;;;14.05;5.93;;;;;;;20.10;100.00;97072.31;5054550;28;20109;-80
2023/07/20 03:09:19;;;;;;;19.25;6.03;;;;;;;20.20;100.00;97073.03;5054482;28;20407;-80
2023/07/20 03:11:45;;;;;;;8.48;5.88;;;;;;;20.26;100.00;97075.97;5070975;28;20426;-81
2023/07/20 03:14:10;;;;;;;14.27;6.72;;;;;;;20.28;100.00;97073.06;5065411;28;20103;-80
2023/07/20 03:16:36;;;;;;;13.68;7.10;;;;;;;20.22;100.00;97074.53;5052085;28;20105;-76
2023/07/20 03:19:02;;;;;;;16.00;7.47;;;;;;;20.18;100.00;97069.63;5050977;28;20021;-77
2023/07/20 03:21:28;;;;;;;16.33;7.05;;;;;;;20.12;100.00;97065.69;5059605;28;20115;-77
2023/07/20 03:23:54;;;;;;;15.43;5.97;;;;;;;20.14;100.00;97073.69;5070923;28;20028;-76
2023/07/20 03:26:19;;;;;;;14.02;5.53;;;;;;;20.12;100.00;97070.28;5070084;28;20024;-77
2023/07/20 03:28:45;;;;;;;12.15;5.45;;;;;;;20.09;100.00;97060.59;5034186;28;20587;-76
2023/07/20 03:31:10;;;;;;;14.65;5.05;;;;;;;20.17;100.00;97052.47;5050584;28;20419;-78
2023/07/20 03:33:36;;;;;;;9.82;4.50;;;;;;;20.24;100.00;97053.47;5046363;28;20103;-77
2023/07/20 03:36:01;;;;;;;11.10;4.03;;;;;;;20.23;100.00;97040.94;5070434;28;20109;-78
2023/07/20 03:38:27;;;;;;;13.10;4.22;;;;;;;20.28;100.00;97032.31;5070215;28;20036;-76
2023/07/20 03:40:59;;;;;;;10.88;4.63;;;;;;;20.37;100.00;97037.59;5058842;28;20060;-77
2023/07/20 03:43:26;;;;;;;17.87;5.10;;;;;;;20.43;100.00;97028.75;5050391;28;20043;-78
2023/07/20 03:45:51;;;;;;;8.82;4.85;;;;;;;20.45;100.00;97034.03;5039194;28;20048;-77
2023/07/20 03:48:24;;;;;;;24.70;6.80;;;;;;;20.56;100.00;97033.69;5033649;28;20087;-77
2023/07/20 03:50:50;;;;;;;;;;;;;;;20.69;100.00;97044.06;5036580;28;20029;-77
2023/07/20 03:53:16;;;;;;;21.25;6.05;;;;;;;20.68;100.00;97037.78;5054148;28;19938;-76
2023/07/20 03:55:48;;;;;;;27.08;7.82;;;;;;;20.64;100.00;97047.28;5033269;28;20021;-76
2023/07/20 03:58:14;;;;;;;20.38;7.25;;;;;;;20.66;100.00;97047.97;5049487;28;20028;-76
2023/07/20 04:00:40;;;;;;;21.88;8.10;;;;;;;20.70;100.00;97054.78;5049858;28;20028;-76
2023/07/20 04:03:06;;;;;;;22.98;8.02;;;;;;;20.71;100.00;97067.34;5050253;28;20341;-77
2023/07/20 04:05:31;;;;;;;18.10;7.57;;;;;;;20.79;100.00;97072.78;5041171;28;20024;-77
2023/07/20 04:07:57;;;;;;;16.48;6.88;;;;;;;20.81;100.00;97076.19;5058403;28;20024;-77
2023/07/20 04:10:22;;;;;;;23.13;7.03;;;;;;;20.87;100.00;97077.38;5033267;28;20032;-77
2023/07/20 04:12:48;;;;;;;22.10;7.18;;;;;;;20.95;100.00;97083.63;5040958;28;20047;-77
2023/07/20 04:15:14;;;;;;;19.85;6.93;;;;;;;21.02;100.00;97083.81;5049779;28;20024;-77
2023/07/20 04:17:42;;;;;;;12.35;7.05;;;;;;;21.04;100.00;97069.00;5033514;28;20123;-76
2023/07/20 04:20:08;;;;;;;20.88;7.93;;;;;;;21.10;100.00;97077.56;5055734;28;20499;-76
2023/07/20 04:22:34;;;;;;;20.35;7.68;;;;;;;21.11;100.00;97057.47;5049268;28;20032;-79
2023/07/20 04:24:59;;;;;;;21.42;6.97;;;;;;;21.11;100.00;97057.47;5064412;28;20541;-78
2023/07/20 04:27:26;;;;;;;18.38;6.65;;;;;;;21.09;100.00;97054.94;5069517;28;20055;-76
2023/07/20 04:29:51;;;;;;;13.57;6.65;;;;;;;21.07;100.00;97049.63;5059217;28;20106;-76
2023/07/20 04:32:17;;;;;;;23.42;6.65;;;;;;;21.16;100.00;97049.66;5038044;28;20488;-76
2023/07/20 04:34:42;;;;;;;17.33;6.68;;;;;;;21.28;100.00;97043.69;5061044;28;20489;-75
2023/07/20 04:38:07;;;;;;;14.63;6.53;;;;;;;21.36;100.00;97038.22;5066696;28;20036;-75
2023/07/20 04:40:36;;;;;;;14.70;6.47;;;;;;;21.31;100.00;97026.16;5057307;28;20175;-76
2023/07/20 04:43:01;;;;;;;13.35;6.72;;;;;;;21.42;100.00;97029.34;5052476;28;20060;-75
2023/07/20 04:45:27;;;;;;;11.70;6.38;;;;;;;21.58;100.00;97026.59;5054939;28;20041;-76
2023/07/20 04:47:52;;;;;;;21.15;7.22;;;;;;;21.71;100.00;97023.31;5049272;28;20021;-74
2023/07/20 04:50:18;;;;;;;12.95;6.40;;;;;;;21.86;100.00;97020.66;5048946;28;20116;-75
2023/07/20 04:52:46;;;;;;;18.48;7.68;;;;;;;22.03;100.00;97023.16;5049060;28;20032;-74
2023/07/20 04:55:11;;;;;;;21.27;8.52;;;;;;;22.06;100.00;97022.78;5050625;28;20508;-75
2023/07/20 04:57:37;;;;;;;17.45;6.95;;;;;;;22.18;100.00;97014.22;5049225;28;20057;-75
2023/07/20 05:00:03;;;;;;;19.55;6.85;;;;;;;22.29;100.00;97014.66;5048761;28;20127;-75
2023/07/20 05:02:29;;;;;;;21.85;7.53;;;;;;;22.36;100.00;97021.09;5050624;28;20032;-75
2023/07/20 05:04:54;;;;;;;25.63;8.50;;;;;;;22.82;100.00;97016.50;5050373;28;20033;-76
2023/07/20 05:07:20;;;;;;;21.08;8.00;;;;;;;24.01;100.00;97005.44;5049223;28;20025;-76
2023/07/20 05:09:45;;;;;;;25.70;7.03;;;;;;;24.87;100.00;96991.66;5033072;28;20037;-76
2023/07/20 05:12:12;;;;;;;18.02;5.82;;;;;;;24.83;100.00;96984.88;5061107;28;20020;-76
2023/07/20 05:14:38;;;;;;;15.20;6.32;;;;;;;24.87;100.00;96986.19;5052976;28;20021;-77
2023/07/20 05:17:06;;;;;;;12.23;5.93;;;;;;;24.77;100.00;96981.00;5067100;28;20111;-77
2023/07/20 05:19:32;;;;;;;20.77;6.43;;;;;;;24.76;100.00;96982.03;5072836;28;20490;-78
2023/07/20 05:21:57;;;;;;;12.98;5.88;;;;;;;24.67;100.00;96988.69;5069073;28;20067;-77
2023/07/20 05:24:23;;;;;;;22.13;6.28;;;;;;;24.64;100.00;96982.81;5052872;28;20039;-76
2023/07/20 05:26:48;;;;;;;14.05;6.85;;;;;;;25.52;100.00;96982.25;5052816;28;20501;-76
2023/07/20 05:29:14;;;;;;;20.13;6.65;;;;;;;26.64;100.00;96978.03;5052742;28;20086;-76
2023/07/20 05:31:39;;;;;;;14.98;6.72;;;;;;;27.17;100.00;96963.28;5052554;28;20045;-77
2023/07/20 05:34:05;;;;;;;11.88;5.72;;;;;;;27.73;100.00;96951.75;5035706;28;20499;-76
2023/07/20 05:36:31;;;;;;;16.40;6.38;;;;;;;28.84;100.00;96945.66;5053932;28;20033;-77
2023/07/20 05:38:56;;;;;;;18.48;6.57;;;;;;;29.54;100.00;96940.78;5052642;28;20024;-76
2023/07/20 05:41:22;;;;;;;23.17;5.97;;;;;;;29.68;100.00;96949.75;5052683;28;20083;-76
2023/07/20 05:43:48;;;;;;;11.07;5.57;;;;;;;30.13;100.00;96948.38;5052319;28;20040;-77
2023/07/20 05:46:13;;;;;;;11.15;5.30;;;;;;;30.79;100.00;96952.97;5052353;28;20035;-76
2023/07/20 05:48:39;;;;;;;19.13;7.35;;;;;;;30.73;100.00;96959.44;5052331;28;20443;-76
2023/07/20 05:51:05;;;;;;;17.83;6.15;;;;;;;30.69;100.00;96961.81;5063000;28;20454;-77
2023/07/20 05:53:31;;;;;;;21.45;6.38;;;;;;;30.63;100.00;96971.91;5072703;28;20025;-77
2023/07/20 05:55:56;;;;;;;21.25;9.02;;;;;;;30.79;100.00;96972.31;5072219;28;20033;-78
2023/07/20 05:58:23;;;;;;;20.20;6.93;;;;;;;30.75;100.00;96971.94;5052034;28;20033;-77
2023/07/20 06:00:49;;;;;;;16.08;7.93;;;;;;;30.50;100.00;96980.38;5059276;28;20035;-77
2023/07/20 06:03:16;;;;;;;17.42;7.03;;;;;;;31.32;100.00;96975.88;5073199;28;20099;-77
2023/07/20 06:05:42;;;;;;;16.33;6.45;;;;;;;31.21;100.00;96973.13;5071970;28;20039;-77
2023/07/20 06:08:08;;;;;;;20.70;8.27;;;;;;;31.83;99.02;96982.66;5072019;28;20020;-76
2023/07/20 06:10:33;;;;;;;29.20;7.43;;;;;;;31.91;94.46;96971.19;5072361;28;20028;-77
2023/07/20 06:12:59;;;;;;;15.27;6.03;;;;;;;32.00;91.59;96972.50;5071929;28;20040;-76
2023/07/20 06:15:31;;;;;;;24.40;6.65;;;;;;;31.73;95.22;96969.41;5055101;28;20028;-76
2023/07/20 06:17:57;;;;;;;18.08;6.07;;;;;;;30.62;97.43;96978.50;5055135;28;20097;-75
2023/07/20 06:20:23;;;;;;;20.45;5.35;;;;;;;31.17;95.83;96981.03;5067306;28;20040;-76
2023/07/20 06:22:49;;;;;;;14.02;5.38;;;;;;;31.94;90.00;96970.69;5072193;28;20029;-76
2023/07/20 06:25:15;;;;;;;11.75;5.53;;;;;;;31.95;90.46;96959.41;5053853;28;20032;-77
2023/07/20 06:27:40;;;;;;;15.07;6.05;;;;;;;32.77;85.09;96956.34;5059920;28;20016;-77
2023/07/20 06:30:06;;;;;;;15.55;5.70;;;;;;;33.44;80.00;96954.50;5071717;28;20028;-77
2023/07/20 06:32:32;;;;;;;11.73;5.30;;;;;;;33.81;77.25;96957.56;5071492;28;20456;-75
2023/07/20 06:34:57;;;;;;;22.52;7.45;;;;;;;34.58;72.72;96953.56;5065968;28;20039;-76
2023/07/20 06:37:24;;;;;;;13.20;5.78;;;;;;;34.72;72.27;96943.75;5069077;28;20036;-76
2023/07/20 06:39:49;;;;;;;15.70;6.43;;;;;;;34.69;70.15;96949.84;5071340;28;20044;-76
2023/07/20 06:42:15;;;;;;;17.50;5.30;;;;;;;35.03;67.01;96938.47;5055413;28;20025;-75
2023/07/20 06:44:40;;;;;;;13.40;4.95;;;;;;;35.57;63.36;96931.72;5059899;28;20484;-75
2023/07/20 06:47:06;;;;;;;12.35;5.30;;;;;;;35.56;60.93;96932.81;5071444;28;20072;-76
2023/07/20 06:49:31;;;;;;;18.92;6.40;;;;;;;35.17;63.37;96945.28;5066643;28;20469;-75
2023/07/20 06:51:57;;;;;;;9.57;5.20;;;;;;;34.75;64.03;96936.81;5061020;28;20032;-75
2023/07/20 06:54:23;;;;;;;15.05;5.63;;;;;;;33.54;73.20;96961.03;5034490;28;20595;-75
2023/07/20 06:56:48;;;;;;;16.85;5.68;;;;;;;33.97;72.22;96965.00;5051446;28;20084;-76
2023/07/20 06:59:14;;;;;;;13.02;5.78;;;;;;;34.06;72.57;96966.22;5051263;28;20432;-76
2023/07/20 07:01:39;;;;;;;13.50;5.70;;;;;;;33.44;74.87;96955.31;5051028;28;20040;-75
2023/07/20 07:04:05;;;;;;;18.55;5.88;;;;;;;34.63;70.84;96961.16;5062591;28;20541;-76
2023/07/20 07:06:31;;;;;;;20.33;5.43;;;;;;;35.23;66.27;96961.75;5070988;28;20025;-75
2023/07/20 07:08:56;;;;;;;15.52;5.25;;;;;;;35.13;63.82;96946.94;5050040;28;20051;-77
2023/07/20 07:11:23;;;;;;;20.00;5.47;;;;;;;35.32;62.27;96948.19;5058746;28;20479;-77
2023/07/20 07:13:50;;;;;;;11.35;4.75;;;;;;;35.12;63.58;96957.22;5051834;28;20024;-77
2023/07/20 07:16:18;;;;;;;17.48;5.85;;;;;;;34.17;66.71;96965.31;5067164;28;20016;-77
2023/07/20 07:18:47;;;;;;;16.80;6.35;;;;;;;34.71;67.21;96969.00;5072168;28;20032;-76
2023/07/20 07:21:12;;;;;;;18.98;5.65;;;;;;;35.84;60.99;96971.41;5035230;28;20033;-76
2023/07/20 07:23:39;;;;;;;16.15;5.57;;;;;;;36.27;59.15;96978.63;5061931;28;20499;-76
2023/07/20 07:26:04;;;;;;;15.73;5.95;;;;;;;36.04;59.70;96979.06;5053726;28;20024;-76
2023/07/20 07:28:31;;;;;;;19.67;5.75;;;;;;;35.64;60.86;96988.00;5053777;28;20028;-76
2023/07/20 07:30:57;;;;;;;17.90;6.50;;;;;;;34.56;68.43;97005.78;5070442;28;20519;-77
2023/07/20 07:33:23;;;;;;;12.77;5.25;;;;;;;34.40;70.69;97005.84;5050504;28;20025;-76
2023/07/20 07:38:34;;;;;;;20.08;7.00;;;;;;;34.94;69.45;96998.44;5063242;28;20062;-76
2023/07/20 07:40:59;;;;;;;15.25;6.85;;;;;;;35.03;67.91;96996.88;5051886;28;20104;-76
2023/07/20 07:43:26;;;;;;;15.88;5.53;;;;;;;35.58;63.53;97002.13;5029928;28;20137;-75
2023/07/20 07:45:53;;;;;;;26.73;7.15;;;;;;;34.70;69.97;97014.59;5033478;28;20480;-76
2023/07/20 07:48:20;;;;;;;14.88;5.38;;;;;;;33.71;72.92;97016.56;5051280;28;20029;-77
2023/07/20 07:50:46;;;;;;;13.75;5.40;;;;;;;33.01;79.87;97024.47;5050121;28;20029;-76
2023/07/20 07:53:11;;;;;;;18.88;6.35;;;;;;;32.84;82.87;97031.88;5051519;28;20024;-77
2023/07/20 07:55:37;;;;;;;18.42;6.28;;;;;;;32.12;86.72;97025.94;5050457;28;20071;-78
2023/07/20 07:58:02;;;;;;;11.55;5.53;;;;;;;32.19;90.57;97048.78;5050013;28;20456;-77
2023/07/20 08:00:28;;;;;;;18.73;6.25;;;;;;;33.17;83.66;97045.84;5047846;28;20028;-78
2023/07/20 08:02:53;;;;;;;18.02;6.57;;;;;;;34.06;77.91;97060.63;5052028;28;20088;-77
2023/07/20 08:05:18;;;;;;;23.45;6.40;;;;;;;34.62;72.99;97076.19;5064024;28;20024;-79
2023/07/20 08:07:45;;;;;;;13.60;5.60;;;;;;;34.58;70.97;97073.06;5033558;28;20408;-79
2023/07/20 08:10:11;;;;;;;14.57;5.32;;;;;;;34.02;78.04;97082.53;5056778;28;20503;-78
2023/07/20 08:12:37;;;;;;;12.55;5.82;;;;;;;34.23;79.06;97081.78;5041592;28;20017;-78
2023/07/20 08:15:03;;;;;;;18.80;7.88;;;;;;;35.56;72.02;97058.06;5049775;28;20120;-77
2023/07/20 08:17:29;;;;;;;14.35;8.30;;;;;;;37.32;58.77;97047.03;5059408;28;20108;-85
2023/07/20 08:19:55;;;;;;;17.77;4.10;;;;;;;38.17;49.68;97038.97;5033362;28;20029;-80
2023/07/20 08:22:20;;;;;;;22.52;4.43;;;;;;;38.60;47.17;97041.09;5052075;28;20404;-81
2023/07/20 08:24:46;;;;;;;9.43;2.97;;;;;;;38.80;43.96;97046.63;5049798;28;20548;-81
2023/07/20 08:27:11;;;;;;;6.85;2.40;;;;;;;39.16;42.06;97041.69;5033166;28;20036;-82
2023/07/20 08:29:37;;;;;;;8.70;2.00;;;;;;;39.04;41.34;97063.56;5033516;28;20047;-82
2023/07/20 08:32:06;;;;;;;5.00;1.80;;;;;;;38.25;41.76;97074.72;5067800;28;20485;-81
2023/07/20 08:34:32;;;;;;;27.00;2.60;;;;;;;38.72;39.66;97058.38;5055895;28;20025;-81
2023/07/20 08:36:58;;;;;;;6.05;2.00;;;;;;;39.23;39.82;97066.56;5049747;28;20036;-80
2023/07/20 08:39:24;;;;;;;7.18;2.28;;;;;;;39.70;38.47;97061.22;5066767;28;20020;-81
2023/07/20 08:41:49;;;;;;;9.27;2.42;;;;;;;39.34;39.03;97057.00;5057897;28;20103;-82
2023/07/20 08:44:15;;;;;;;5.32;2.33;;;;;;;39.17;37.96;97057.34;5066269;28;20025;-81
2023/07/20 08:46:41;;;;;;;8.90;2.47;;;;;;;40.19;36.98;97052.66;5033393;28;20034;-82
2023/07/20 08:49:07;;;;;;;4.85;1.70;;;;;;;39.83;36.28;97046.56;5049550;28;20031;-80
2023/07/20 08:51:33;;;;;;;4.90;1.73;;;;;;;39.66;36.26;97040.50;5049759;28;20059;-82
2023/07/20 08:53:59;;;;;;;11.25;2.53;;;;;;;39.74;36.00;97044.66;5033321;28;20028;-80
2023/07/20 08:56:26;;;;;;;8.93;3.38;;;;;;;39.84;35.96;97042.59;5058434;28;20561;-81
2023/07/20 08:58:55;;;;;;;7.85;3.13;;;;;;;40.56;34.96;97052.00;5048788;28;20020;-82
2023/07/20 09:01:22;;;;;;;5.03;2.00;;;;;;;40.22;34.15;97043.66;5066233;28;20031;-82
2023/07/20 09:03:48;;;;;;;8.73;2.22;;;;;;;40.29;34.55;97027.31;5049822;28;20162;-82
2023/07/20 09:06:13;;;;;;;3.88;1.63;;;;;;;40.04;33.89;97031.22;5049830;28;20510;-81
2023/07/20 09:08:40;;;;;;;6.63;1.60;;;;;;;40.82;34.07;97027.28;5041200;28;20025;-81
2023/07/20 09:11:05;;;;;;;8.95;1.70;;;;;;;40.37;33.22;97021.06;5039534;28;20071;-83
2023/07/20 09:13:35;;;;;;;6.43;2.35;;;;;;;40.47;34.27;97023.75;5049654;28;20067;-81
2023/07/20 09:16:00;;;;;;;5.43;1.98;;;;;;;41.89;32.56;97019.78;5049455;28;20503;-82
2023/07/20 09:18:28;;;;;;;4.55;1.40;;;;;;;41.81;31.54;97009.22;5060942;28;20021;-82
2023/07/20 09:20:59;;;;;;;6.78;1.80;;;;;;;41.70;32.14;96999.28;5069666;28;20029;-82
2023/07/20 09:23:31;;;;;;;4.28;1.80;;;;;;;41.94;31.06;96999.16;5042186;28;20036;-74
2023/07/20 09:25:57;;;;;;;8.35;3.05;;;;;;;41.47;31.85;96992.63;5050442;28;20488;-75
2023/07/20 09:28:23;;;;;;;6.32;2.03;;;;;;;40.65;33.64;96985.69;5048830;28;20041;-75
2023/07/20 09:30:48;;;;;;;4.80;1.85;;;;;;;40.74;32.28;96985.84;5048888;28;20075;-76
2023/07/20 09:33:24;;;;;;;4.28;1.85;;;;;;;40.12;33.06;96986.88;5049042;28;20041;-75
2023/07/20 09:35:50;;;;;;;4.47;2.00;;;;;;;40.40;33.37;96989.59;5053633;28;20028;-75
2023/07/20 09:38:15;;;;;;;7.03;2.67;;;;;;;40.59;33.56;96998.94;5068795;28;20036;-75
2023/07/20 09:40:42;;;;;;;4.53;1.88;;;;;;;38.33;35.63;96995.88;5065753;28;20033;-75
2023/07/20 09:43:11;;;;;;;4.65;2.03;;;;;;;38.93;34.35;96984.44;5057195;28;20117;-76
2023/07/20 09:45:41;;;;;;;5.03;1.70;;;;;;;38.72;35.64;96988.47;5049508;28;20424;-75
2023/07/20 09:48:08;;;;;;;4.72;1.90;;;;;;;39.33;34.87;96977.75;5032325;28;20029;-75
2023/07/20 09:50:34;;;;;;;2.38;1.73;;;;;;;39.67;34.73;96960.13;5048549;28;20512;-75
2023/07/20 09:53:02;;;;;;;4.28;1.55;;;;;;;40.29;33.24;96959.19;5050133;28;20071;-75
2023/07/20 09:55:29;;;;;;;16.15;2.65;;;;;;;41.71;32.43;96967.25;5031864;28;20037;-75
2023/07/20 09:57:55;;;;;;;4.93;2.20;;;;;;;42.42;31.25;96965.91;5053640;28;20032;-75
2023/07/20 10:00:21;;;;;;;3.97;1.50;;;;;;;42.48;30.67;96973.09;5035336;28;20033;-76
2023/07/20 10:02:47;;;;;;;6.85;1.92;;;;;;;43.09;30.54;96961.38;5052172;28;20035;-75
2023/07/20 10:05:14;;;;;;;6.55;2.33;;;;;;;43.09;30.17;96956.59;5052068;28;20056;-76
2023/07/20 10:08:00;;;;;;;3.90;1.60;;;;;;;43.80;29.58;96939.91;5053754;28;20033;-75
2023/07/20 10:10:26;;;;;;;4.78;1.58;;;;;;;44.20;28.49;96933.19;5061622;28;20090;-76
2023/07/20 10:12:52;;;;;;;7.63;2.97;;;;;;;43.16;28.78;96925.97;5068659;28;20029;-75
2023/07/20 10:15:27;;;;;;;7.65;3.17;;;;;;;41.04;30.17;96918.88;5053245;28;20468;-75
2023/07/20 10:18:11;;;;;;;4.57;2.40;;;;;;;39.75;32.50;96923.88;5052338;28;20078;-75
2023/07/20 10:20:39;;;;;;;6.28;2.20;;;;;;;39.13;33.67;96909.88;5051754;28;20021;-75
2023/07/20 10:23:06;;;;;;;5.43;1.50;;;;;;;38.32;33.86;96904.75;5035612;28;20473;-75
2023/07/20 10:25:32;;;;;;;8.80;1.73;;;;;;;37.87;34.50;96908.53;5052340;28;20024;-75
2023/07/20 10:27:58;;;;;;;4.78;1.77;;;;;;;37.12;35.57;96923.41;5035172;28;20029;-75
2023/07/20 10:30:25;;;;;;;5.85;1.65;;;;;;;36.13;36.06;96907.81;5051646;28;20021;-75
2023/07/20 10:32:51;;;;;;;3.85;1.77;;;;;;;35.66;38.10;96895.84;5053522;28;20025;-75
2023/07/20 10:35:17;;;;;;;3.97;1.50;;;;;;;35.50;38.45;96894.88;5071755;28;20135;-76
2023/07/20 10:37:54;;;;;;;6.82;2.00;;;;;;;35.11;39.97;96879.59;5071391;28;20128;-75
2023/07/20 10:40:30;;;;;;;4.53;1.45;;;;;;;35.31;39.80;96879.75;5071682;28;20025;-74
2023/07/20 10:43:09;;;;;;;9.90;2.05;;;;;;;35.09;40.64;96874.31;5072586;28;20119;-74
2023/07/20 10:45:51;;;;;;;2.67;1.70;;;;;;;35.09;40.71;96870.69;5063743;28;20116;-75
2023/07/20 10:48:22;;;;;;;2.60;1.80;;;;;;;35.12;41.64;96861.81;5051479;28;20020;-75
2023/07/20 10:51:11;;;;;;;3.88;1.80;;;;;;;35.61;41.90;96873.56;5053278;28;20025;-75
2023/07/20 10:53:36;;;;;;;3.22;1.90;;;;;;;36.01;40.64;96879.31;5071277;28;20048;-76
2023/07/20 10:56:13;;;;;;;4.18;1.55;;;;;;;36.17;40.22;96878.31;5071081;28;20082;-75
2023/07/20 10:58:39;;;;;;;4.03;1.73;;;;;;;36.51;40.45;96866.69;5055285;28;20027;-75
2023/07/20 11:01:06;;;;;;;6.50;1.98;;;;;;;36.67;39.95;96872.00;5034396;28;20119;-75
2023/07/20 11:03:39;;;;;;;4.80;1.90;;;;;;;36.57;39.85;96869.22;5051232;28;20057;-75
2023/07/20 11:06:23;;;;;;;4.03;1.40;;;;;;;36.12;40.99;96855.13;5051078;28;20036;-74
2023/07/20 11:09:14;;;;;;;3.80;1.85;;;;;;;36.14;40.43;96847.38;5051724;28;20083;-75
2023/07/20 11:11:47;;;;;;;9.07;1.90;;;;;;;37.32;39.35;96837.69;5050850;28;20419;-74
2023/07/20 11:14:26;;;;;;;2.03;1.50;;;;;;;37.64;38.32;96817.00;5050952;28;20024;-75
2023/07/20 11:16:53;;;;;;;4.63;1.73;;;;;;;38.32;37.93;96810.53;5034120;28;20116;-76
2023/07/20 11:19:25;;;;;;;3.80;1.65;;;;;;;39.64;35.93;96809.41;5050993;28;20396;-76
2023/07/20 11:21:55;;;;;;;4.28;1.80;;;;;;;41.03;34.15;96809.72;5034542;28;20032;-76
2023/07/20 11:24:20;;;;;;;5.13;2.15;;;;;;;39.16;36.22;96802.91;5033896;28;20031;-75
2023/07/20 11:26:48;;;;;;;6.78;2.28;;;;;;;39.21;37.47;96805.66;5050675;28;20408;-76
2023/07/20 11:29:15;;;;;;;10.80;2.33;;;;;;;39.08;37.22;96800.72;5038124;28;20021;-75